createdAt,value
2018-11-03T00:02:26.122Z,9.17
2018-11-03T00:05:29.586Z,9.15
2018-11-03T00:08:33.142Z,9.05
2018-11-03T00:11:36.790Z,9.01
2018-11-03T00:14:40.372Z,8.97
2018-11-03T00:17:43.895Z,9.02
2018-11-03T00:20:48.434Z,9.11
2018-11-03T00:23:51.985Z,9.14
2018-11-03T00:26:55.431Z,9.19
2018-11-03T00:29:58.956Z,9.20
2018-11-03T00:33:02.448Z,9.17
2018-11-03T00:36:06.444Z,9.12
2018-11-03T00:39:11.510Z,9.08
2018-11-03T00:42:14.984Z,9.15
2018-11-03T00:45:18.484Z,9.22
2018-11-03T00:48:22.025Z,9.24
2018-11-03T00:51:25.513Z,9.18
2018-11-03T00:54:29.015Z,9.23
2018-11-03T00:57:32.493Z,9.19
2018-11-03T01:00:36.022Z,9.12
2018-11-03T01:03:39.501Z,9.14
2018-11-03T01:06:43.035Z,9.20
2018-11-03T01:09:46.508Z,9.22
2018-11-03T01:12:50.006Z,9.18
2018-11-03T01:15:53.501Z,9.17
2018-11-03T01:18:57.003Z,9.23
2018-11-03T01:22:01.437Z,9.24
2018-11-03T01:25:05.002Z,9.24
2018-11-03T01:28:08.537Z,9.28
2018-11-03T01:31:12.052Z,9.21
2018-11-03T01:34:15.537Z,9.13
2018-11-03T01:37:19.055Z,9.17
2018-11-03T01:40:22.475Z,9.20
2018-11-03T01:43:25.957Z,9.24
2018-11-03T01:46:29.467Z,9.21
2018-11-03T01:49:33.045Z,9.23
2018-11-03T01:52:37.304Z,9.22
2018-11-03T01:55:40.800Z,9.24
2018-11-03T01:58:44.374Z,9.26
2018-11-03T02:01:47.790Z,9.27
2018-11-03T02:04:51.193Z,9.16
2018-11-03T02:07:54.688Z,9.07
2018-11-03T02:10:58.158Z,9.00
2018-11-03T02:14:01.591Z,9.01
2018-11-03T02:17:05.390Z,9.03
2018-11-03T02:20:10.079Z,8.94
2018-11-03T02:23:13.540Z,8.90
2018-11-03T02:26:17.041Z,8.88
2018-11-03T02:29:20.527Z,8.81
2018-11-03T02:32:23.941Z,8.75
2018-11-03T02:35:27.332Z,8.78
2018-11-03T02:38:30.762Z,8.81
2018-11-03T02:41:34.300Z,8.67
2018-11-03T02:44:37.753Z,8.61
2018-11-03T02:47:41.613Z,8.59
2018-11-03T02:50:45.084Z,8.59
2018-11-03T02:53:48.478Z,8.64
2018-11-03T02:56:51.975Z,8.64
2018-11-03T02:59:55.487Z,8.64
2018-11-03T03:02:58.972Z,8.65
2018-11-03T03:06:02.383Z,8.54
2018-11-03T03:09:07.570Z,8.54
2018-11-03T03:12:11.031Z,8.60
2018-11-03T03:15:14.528Z,8.61
2018-11-03T03:18:17.908Z,8.55
2018-11-03T03:21:21.327Z,8.48
2018-11-03T03:24:24.809Z,8.53
2018-11-03T03:27:28.307Z,8.54
2018-11-03T03:30:31.798Z,8.50
2018-11-03T03:33:36.322Z,8.39
2018-11-03T03:36:39.724Z,8.44
2018-11-03T03:39:43.544Z,8.47
2018-11-03T03:42:46.948Z,8.44
2018-11-03T03:45:50.349Z,8.42
2018-11-03T03:48:53.970Z,8.43
2018-11-03T03:51:57.346Z,8.40
2018-11-03T03:55:01.852Z,8.32
2018-11-03T03:58:05.894Z,8.28
2018-11-03T04:01:09.352Z,8.29
2018-11-03T04:04:12.813Z,8.34
2018-11-03T04:07:16.198Z,8.37
2018-11-03T04:10:19.584Z,8.41
2018-11-03T04:13:23.011Z,8.42
2018-11-03T04:16:26.382Z,8.35
2018-11-03T04:19:30.815Z,8.40
2018-11-03T04:22:34.209Z,8.41
2018-11-03T04:25:38.829Z,8.41
2018-11-03T04:28:42.257Z,8.35
2018-11-03T04:31:45.665Z,8.26
2018-11-03T04:34:49.051Z,8.19
2018-11-03T04:37:52.559Z,8.06
2018-11-03T04:40:55.940Z,8.01
2018-11-03T04:43:59.382Z,7.98
2018-11-03T04:47:02.772Z,7.99
2018-11-03T04:50:06.415Z,7.95
2018-11-03T04:53:09.958Z,7.96
2018-11-03T04:56:13.519Z,7.95
2018-11-03T04:59:17.066Z,8.27
2018-11-03T05:02:20.596Z,8.41
2018-11-03T05:05:24.136Z,8.31
2018-11-03T05:08:27.710Z,8.29
2018-11-03T05:11:31.252Z,8.41
2018-11-03T05:14:34.803Z,8.30
2018-11-03T05:17:38.353Z,8.20
2018-11-03T05:20:41.979Z,8.10
2018-11-03T05:23:45.503Z,8.08
2018-11-03T05:26:49.055Z,8.00
2018-11-03T05:29:52.617Z,7.89
2018-11-03T05:33:05.999Z,7.88
2018-11-03T05:36:09.615Z,7.87
2018-11-03T05:39:13.381Z,7.89
2018-11-03T05:42:16.946Z,7.84
2018-11-03T05:45:20.525Z,7.78
2018-11-03T05:48:24.137Z,7.68
2018-11-03T05:51:27.691Z,7.76
2018-11-03T05:54:31.411Z,7.81
2018-11-03T05:57:34.984Z,7.83
2018-11-03T06:00:38.494Z,7.84
2018-11-03T06:03:42.271Z,7.81
2018-11-03T06:06:45.895Z,7.84
2018-11-03T06:09:49.433Z,7.85
2018-11-03T06:12:52.920Z,7.85
2018-11-03T06:15:56.514Z,7.94
2018-11-03T06:19:00.175Z,7.93
2018-11-03T06:22:03.675Z,7.92
2018-11-03T06:25:07.869Z,7.82
2018-11-03T06:28:27.687Z,7.77
2018-11-03T06:31:31.304Z,7.69
2018-11-03T06:34:34.863Z,7.67
2018-11-03T06:37:38.347Z,7.68
2018-11-03T06:40:41.851Z,7.69
2018-11-03T06:43:45.380Z,7.73
2018-11-03T06:46:48.882Z,7.77
2018-11-03T06:49:52.360Z,7.83
2018-11-03T06:52:56.167Z,7.83
2018-11-03T06:55:59.600Z,7.91
2018-11-03T06:59:03.544Z,7.94
2018-11-03T07:02:07.090Z,7.88
2018-11-03T07:05:10.742Z,7.91
2018-11-03T07:08:14.225Z,7.94
2018-11-03T07:11:17.791Z,7.95
2018-11-03T07:14:21.471Z,7.80
2018-11-03T07:17:25.131Z,7.83
2018-11-03T07:20:28.686Z,7.85
2018-11-03T07:23:32.231Z,7.71
2018-11-03T07:26:35.750Z,7.73
2018-11-03T07:29:40.285Z,7.76
2018-11-03T07:32:43.783Z,7.73
2018-11-03T07:35:47.334Z,7.75
2018-11-03T07:38:51.795Z,7.69
2018-11-03T07:41:55.589Z,7.69
2018-11-03T07:44:59.291Z,7.68
2018-11-03T07:48:02.900Z,7.74
2018-11-03T07:51:06.363Z,7.87
2018-11-03T07:54:09.844Z,8.00
2018-11-03T07:57:13.323Z,7.94
2018-11-03T08:00:16.829Z,8.05
2018-11-03T08:03:20.322Z,8.15
2018-11-03T08:06:24.838Z,8.22
2018-11-03T08:09:28.368Z,8.22
2018-11-03T08:12:31.858Z,8.12
2018-11-03T08:15:35.487Z,8.22
2018-11-03T08:18:38.965Z,8.35
2018-11-03T08:21:42.490Z,8.43
2018-11-03T08:24:46.017Z,8.56
2018-11-03T08:27:49.555Z,8.56
2018-11-03T08:30:53.086Z,8.60
2018-11-03T08:33:56.625Z,8.82
2018-11-03T08:37:00.097Z,8.92
2018-11-03T08:40:04.210Z,8.96
2018-11-03T08:43:07.707Z,9.18
2018-11-03T08:46:11.183Z,9.20
2018-11-03T08:49:14.742Z,9.22
2018-11-03T08:52:18.217Z,9.29
2018-11-03T08:55:21.689Z,9.39
2018-11-03T08:58:25.528Z,9.50
2018-11-03T09:01:29.090Z,9.69
2018-11-03T09:04:32.659Z,9.81
2018-11-03T09:07:36.747Z,9.77
2018-11-03T09:10:40.280Z,9.73
2018-11-03T09:13:43.828Z,9.81
2018-11-03T09:16:47.495Z,10.03
2018-11-03T09:19:51.001Z,10.10
2018-11-03T09:22:54.547Z,10.03
2018-11-03T09:25:58.248Z,10.01
2018-11-03T09:29:01.779Z,9.89
2018-11-03T09:32:05.620Z,9.93
2018-11-03T09:35:09.915Z,10.01
2018-11-03T09:38:13.492Z,10.29
2018-11-03T09:41:17.025Z,10.63
2018-11-03T09:44:20.518Z,10.75
2018-11-03T09:47:24.101Z,10.73
2018-11-03T09:50:27.715Z,10.94
2018-11-03T09:53:31.195Z,11.12
2018-11-03T09:56:34.774Z,11.10
2018-11-03T09:59:38.162Z,11.11
2018-11-03T10:02:41.676Z,11.00
2018-11-03T10:05:45.162Z,11.26
2018-11-03T10:08:48.680Z,11.35
2018-11-03T10:11:52.207Z,11.33
2018-11-03T10:14:55.746Z,11.42
2018-11-03T10:17:59.320Z,11.37
2018-11-03T10:21:02.875Z,11.47
2018-11-03T10:24:06.403Z,11.62
2018-11-03T10:27:09.908Z,11.75
2018-11-03T10:30:15.610Z,11.70
2018-11-03T10:33:19.216Z,11.65
2018-11-03T10:36:22.654Z,11.63
2018-11-03T10:39:26.157Z,11.83
2018-11-03T10:42:29.680Z,11.96
2018-11-03T10:45:33.114Z,12.08
2018-11-03T10:48:36.606Z,12.33
2018-11-03T10:51:40.190Z,12.39
2018-11-03T10:54:43.628Z,12.22
2018-11-03T10:57:47.126Z,12.11
2018-11-03T11:00:55.893Z,12.20
2018-11-03T11:04:04.645Z,12.11
2018-11-03T11:07:13.474Z,11.95
2018-11-03T11:10:24.992Z,12.13
2018-11-03T11:13:30.037Z,12.30
2018-11-03T11:16:33.514Z,12.55
2018-11-03T11:19:36.982Z,12.65
2018-11-03T11:22:40.471Z,12.83
2018-11-03T11:25:43.987Z,12.61
2018-11-03T11:28:47.425Z,12.64
2018-11-03T11:31:50.869Z,12.62
2018-11-03T11:34:54.838Z,12.51
2018-11-03T11:37:58.531Z,12.43
2018-11-03T11:41:02.093Z,12.47
2018-11-03T11:44:05.847Z,12.50
2018-11-03T11:47:09.448Z,12.53
2018-11-03T11:50:13.020Z,12.60
2018-11-03T11:53:16.623Z,12.55
2018-11-03T11:56:20.264Z,12.57
2018-11-03T11:59:25.007Z,12.66
2018-11-03T12:02:29.175Z,12.55
2018-11-03T12:05:32.689Z,12.71
2018-11-03T12:08:36.625Z,12.71
2018-11-03T12:11:41.170Z,12.70
2018-11-03T12:14:44.792Z,12.70
2018-11-03T12:17:48.363Z,12.83
2018-11-03T12:20:52.302Z,12.86
2018-11-03T12:23:57.298Z,12.86
2018-11-03T12:27:00.890Z,12.73
2018-11-03T12:30:05.700Z,12.85
2018-11-03T12:33:09.228Z,12.94
2018-11-03T12:36:12.883Z,12.96
2018-11-03T12:39:16.413Z,13.04
2018-11-03T12:42:19.962Z,13.08
2018-11-03T12:45:23.493Z,13.13
2018-11-03T12:48:27.028Z,13.15
2018-11-03T12:51:30.569Z,13.17
2018-11-03T12:54:34.136Z,13.06
2018-11-03T12:57:37.946Z,13.02
2018-11-03T13:00:41.519Z,12.96
2018-11-03T13:03:45.084Z,12.94
2018-11-03T13:06:48.690Z,13.05
2018-11-03T13:09:52.376Z,13.15
2018-11-03T13:12:55.746Z,13.20
2018-11-03T13:15:59.317Z,13.26
2018-11-03T13:19:03.059Z,13.29
2018-11-03T13:22:06.577Z,13.36
2018-11-03T13:25:11.030Z,13.37
2018-11-03T13:28:14.615Z,13.30
2018-11-03T13:31:18.101Z,13.38
2018-11-03T13:34:21.656Z,13.39
2018-11-03T13:37:25.186Z,13.43
2018-11-03T13:40:28.844Z,13.49
2018-11-03T13:43:32.215Z,13.54
2018-11-03T13:46:35.690Z,13.51
2018-11-03T13:49:39.262Z,13.58
2018-11-03T13:52:44.369Z,13.62
2018-11-03T13:55:47.893Z,13.68
2018-11-03T13:58:51.672Z,13.70
2018-11-03T14:01:55.113Z,13.70
2018-11-03T14:04:58.592Z,13.72
2018-11-03T14:08:02.003Z,13.73
2018-11-03T14:11:05.663Z,13.73
2018-11-03T14:14:09.359Z,13.71
2018-11-03T14:17:13.082Z,13.72
2018-11-03T14:20:17.035Z,13.76
2018-11-03T14:23:20.539Z,13.76
2018-11-03T14:26:24.006Z,13.77
2018-11-03T14:29:27.477Z,13.77
2018-11-03T14:32:30.988Z,13.75
2018-11-03T14:35:34.494Z,13.76
2018-11-03T14:38:38.040Z,13.77
2018-11-03T14:41:41.560Z,13.74
2018-11-03T14:44:45.088Z,13.73
2018-11-03T14:47:48.501Z,13.68
2018-11-03T14:50:51.979Z,13.67
2018-11-03T14:53:55.403Z,13.69
2018-11-03T14:56:58.914Z,13.69
2018-11-03T15:00:02.955Z,13.71
2018-11-03T15:03:07.834Z,13.70
2018-11-03T15:06:11.288Z,13.71
2018-11-03T15:09:14.827Z,13.72
2018-11-03T15:12:18.325Z,13.74
2018-11-03T15:15:21.802Z,13.72
2018-11-03T15:18:25.433Z,13.70
2018-11-03T15:21:29.009Z,13.71
2018-11-03T15:24:32.743Z,13.68
2018-11-03T15:27:37.128Z,13.66
2018-11-03T15:30:40.687Z,13.65
2018-11-03T15:33:44.120Z,13.63
2018-11-03T15:36:47.614Z,13.63
2018-11-03T15:39:51.131Z,13.53
2018-11-03T15:42:55.866Z,13.47
2018-11-03T15:45:59.449Z,13.46
2018-11-03T15:49:02.928Z,13.49
2018-11-03T15:52:06.584Z,13.45
2018-11-03T15:55:10.137Z,13.37
2018-11-03T15:58:13.662Z,13.34
2018-11-03T16:01:17.131Z,13.31
2018-11-03T16:04:20.692Z,13.27
2018-11-03T16:07:24.250Z,13.28
2018-11-03T16:10:27.693Z,13.22
2018-11-03T16:13:31.150Z,13.17
2018-11-03T16:16:34.774Z,13.17
2018-11-03T16:19:38.336Z,13.06
2018-11-03T16:22:42.392Z,13.04
2018-11-03T16:25:45.933Z,13.01
2018-11-03T16:28:49.370Z,12.95
2018-11-03T16:31:52.876Z,12.91
2018-11-03T16:34:56.585Z,12.88
2018-11-03T16:38:00.056Z,12.78
2018-11-03T16:41:03.545Z,12.75
2018-11-03T16:44:06.951Z,12.67
2018-11-03T16:47:10.454Z,12.67
2018-11-03T16:50:15.212Z,12.60
2018-11-03T16:53:18.670Z,12.57
2018-11-03T16:56:22.105Z,12.58
2018-11-03T16:59:25.631Z,12.53
2018-11-03T17:02:29.085Z,12.48
2018-11-03T17:05:32.501Z,12.41
2018-11-03T17:08:35.869Z,12.35
2018-11-03T17:11:39.325Z,12.34
2018-11-03T17:14:42.776Z,12.27
2018-11-03T17:17:46.182Z,12.20
2018-11-03T17:20:49.562Z,12.16
2018-11-03T17:23:52.992Z,12.15
2018-11-03T17:26:56.420Z,12.12
2018-11-03T17:29:59.860Z,12.15
2018-11-03T17:33:03.261Z,12.18
2018-11-03T17:36:06.730Z,12.20
2018-11-03T17:39:11.351Z,12.16
2018-11-03T17:42:14.817Z,12.17
2018-11-03T17:45:18.221Z,12.19
2018-11-03T17:48:21.600Z,12.24
2018-11-03T17:51:25.012Z,12.27
2018-11-03T17:54:28.511Z,12.28
2018-11-03T17:57:31.993Z,12.35
2018-11-03T18:00:35.762Z,12.34
2018-11-03T18:03:39.261Z,12.36
2018-11-03T18:06:42.836Z,12.33
2018-11-03T18:09:46.374Z,12.33
2018-11-03T18:12:49.910Z,12.28
2018-11-03T18:15:53.532Z,12.26
2018-11-03T18:18:58.113Z,12.29
2018-11-03T18:22:01.655Z,12.30
2018-11-03T18:25:06.103Z,12.35
2018-11-03T18:28:09.609Z,12.35
2018-11-03T18:31:13.305Z,12.39
2018-11-03T18:34:16.963Z,12.39
2018-11-03T18:37:20.553Z,12.38
2018-11-03T18:40:24.061Z,12.36
2018-11-03T18:43:27.572Z,12.37
2018-11-03T18:46:31.214Z,12.40
2018-11-03T18:49:34.775Z,12.35
2018-11-03T18:52:38.268Z,12.33
2018-11-03T18:55:41.803Z,12.36
2018-11-03T18:58:45.388Z,12.38
2018-11-03T19:01:48.869Z,12.37
2018-11-03T19:04:52.389Z,12.39
2018-11-03T19:07:56.002Z,12.41
2018-11-03T19:10:59.568Z,12.38
2018-11-03T19:14:03.113Z,12.33
2018-11-03T19:17:06.729Z,12.31
2018-11-03T19:20:12.976Z,12.34
2018-11-03T19:23:16.756Z,12.36
2018-11-03T19:26:20.395Z,12.34
2018-11-03T19:29:24.011Z,12.30
2018-11-03T19:32:27.739Z,12.28
2018-11-03T19:35:32.304Z,12.28
2018-11-03T19:38:35.826Z,12.21
2018-11-03T19:41:39.406Z,12.17
2018-11-03T19:44:42.881Z,12.18
2018-11-03T19:47:47.410Z,12.14
2018-11-03T19:50:51.004Z,12.13
2018-11-03T19:53:54.562Z,12.13
2018-11-03T19:56:58.162Z,12.14
2018-11-03T20:00:01.607Z,12.14
2018-11-03T20:03:05.627Z,12.17
2018-11-03T20:06:09.110Z,12.16
2018-11-03T20:09:12.548Z,12.11
2018-11-03T20:12:16.045Z,12.09
2018-11-03T20:15:19.542Z,12.12
2018-11-03T20:18:23.189Z,12.12
2018-11-03T20:21:26.710Z,12.14
2018-11-03T20:24:30.266Z,12.15
2018-11-03T20:27:33.773Z,12.10
2018-11-03T20:30:37.271Z,12.06
2018-11-03T20:33:40.802Z,12.03
2018-11-03T20:36:45.640Z,12.04
2018-11-03T20:39:49.194Z,12.04
2018-11-03T20:42:52.700Z,12.07
2018-11-03T20:45:56.267Z,12.05
2018-11-03T20:48:59.948Z,12.05
2018-11-03T20:52:04.616Z,12.07
2018-11-03T20:55:08.570Z,12.08
2018-11-03T20:58:12.750Z,12.08
2018-11-03T21:01:16.354Z,12.06
2018-11-03T21:04:19.824Z,12.07
2018-11-03T21:07:23.752Z,12.09
2018-11-03T21:10:27.312Z,12.12
2018-11-03T21:13:30.809Z,12.13
2018-11-03T21:16:34.664Z,12.07
2018-11-03T21:19:38.099Z,12.08
2018-11-03T21:22:41.751Z,12.08
2018-11-03T21:25:45.258Z,12.04
2018-11-03T21:28:48.962Z,12.04
2018-11-03T21:31:52.682Z,11.97
2018-11-03T21:34:56.077Z,11.96
2018-11-03T21:37:59.539Z,12.00
2018-11-03T21:41:03.287Z,11.98
2018-11-03T21:44:06.953Z,11.96
2018-11-03T21:47:10.419Z,11.98
2018-11-03T21:50:13.905Z,11.95
2018-11-03T21:53:17.496Z,11.95
2018-11-03T21:56:20.993Z,11.97
2018-11-03T21:59:24.512Z,11.95
2018-11-03T22:02:27.999Z,11.96
2018-11-03T22:05:31.494Z,11.96
2018-11-03T22:08:35.002Z,11.99
2018-11-03T22:11:38.556Z,11.95
2018-11-03T22:14:43.041Z,11.96
2018-11-03T22:17:46.495Z,11.96
2018-11-03T22:20:49.894Z,11.96
2018-11-03T22:23:53.276Z,11.99
2018-11-03T22:26:56.717Z,12.00
2018-11-03T22:30:00.110Z,11.99
2018-11-03T22:33:03.640Z,12.02
2018-11-03T22:36:07.130Z,11.98
2018-11-03T22:39:10.729Z,11.97
2018-11-03T22:42:14.247Z,11.99
2018-11-03T22:45:17.898Z,11.98
2018-11-03T22:48:21.465Z,11.97
2018-11-03T22:51:25.044Z,11.97
2018-11-03T22:54:28.545Z,11.97
2018-11-03T22:57:32.097Z,11.99
2018-11-03T23:00:39.810Z,11.99
2018-11-03T23:03:43.438Z,11.99
2018-11-03T23:06:46.937Z,11.98
2018-11-03T23:09:50.755Z,11.99
2018-11-03T23:12:54.281Z,12.01
2018-11-03T23:15:57.900Z,11.99
2018-11-03T23:19:01.403Z,12.00
2018-11-03T23:22:04.950Z,11.97
2018-11-03T23:25:10.195Z,11.96
2018-11-03T23:28:13.757Z,11.97
2018-11-03T23:31:17.332Z,11.96
2018-11-03T23:34:20.786Z,11.96
2018-11-03T23:37:24.336Z,11.96
2018-11-03T23:40:27.869Z,11.94
2018-11-03T23:43:31.430Z,11.93
2018-11-03T23:46:34.958Z,11.93
2018-11-03T23:49:38.466Z,11.91
2018-11-03T23:52:45.046Z,11.88
2018-11-03T23:55:48.562Z,11.87
2018-11-03T23:58:52.046Z,11.91
